createdAt,value
2023-04-15T00:01:10.085Z,100.00
2023-04-15T00:03:37.038Z,100.00
2023-04-15T00:06:04.238Z,100.00
2023-04-15T00:08:32.654Z,100.00
2023-04-15T00:11:05.867Z,100.00
2023-04-15T00:13:36.017Z,100.00
2023-04-15T00:16:03.135Z,100.00
2023-04-15T00:18:45.863Z,100.00
2023-04-15T00:21:26.498Z,100.00
2023-04-15T00:23:53.937Z,100.00
2023-04-15T00:26:23.532Z,100.00
2023-04-15T00:28:53.133Z,100.00
2023-04-15T00:31:24.986Z,100.00
2023-04-15T00:34:17.339Z,100.00
2023-04-15T00:37:13.627Z,100.00
2023-04-15T00:39:40.936Z,100.00
2023-04-15T00:42:13.414Z,100.00
2023-04-15T00:44:43.304Z,100.00
2023-04-15T00:47:12.414Z,100.00
2023-04-15T00:49:39.104Z,100.00
2023-04-15T00:52:06.242Z,100.00
2023-04-15T00:54:33.047Z,100.00
2023-04-15T00:57:07.285Z,100.00
2023-04-15T00:59:59.774Z,100.00
2023-04-15T01:02:27.606Z,100.00
2023-04-15T01:04:58.925Z,100.00
2023-04-15T01:07:29.018Z,100.00
2023-04-15T01:10:03.982Z,100.00
2023-04-15T01:12:41.014Z,100.00
2023-04-15T01:15:22.181Z,100.00
2023-04-15T01:17:49.240Z,100.00
2023-04-15T01:20:25.337Z,100.00
2023-04-15T01:22:52.995Z,100.00
2023-04-15T01:25:35.166Z,100.00
2023-04-15T01:28:22.330Z,100.00
2023-04-15T01:30:51.362Z,100.00
2023-04-15T01:33:18.149Z,100.00
2023-04-15T01:35:45.220Z,100.00
2023-04-15T01:38:14.455Z,100.00
2023-04-15T01:40:41.049Z,100.00
2023-04-15T01:43:07.776Z,100.00
2023-04-15T01:45:34.524Z,100.00
2023-04-15T01:48:01.728Z,100.00
2023-04-15T01:50:37.071Z,100.00
2023-04-15T01:53:06.201Z,100.00
2023-04-15T01:55:35.823Z,100.00
2023-04-15T01:58:02.758Z,100.00
2023-04-15T02:00:30.169Z,100.00
2023-04-15T02:02:57.145Z,100.00
2023-04-15T02:05:25.697Z,100.00
2023-04-15T02:07:52.721Z,100.00
2023-04-15T02:10:27.392Z,100.00
2023-04-15T02:12:56.791Z,100.00
2023-04-15T02:15:23.440Z,100.00
2023-04-15T02:17:52.900Z,100.00
2023-04-15T02:20:21.535Z,100.00
2023-04-15T02:22:48.640Z,100.00
2023-04-15T02:25:17.084Z,100.00
2023-04-15T02:27:46.486Z,100.00
2023-04-15T02:30:13.627Z,100.00
2023-04-15T02:32:41.069Z,100.00
2023-04-15T02:35:09.052Z,100.00
2023-04-15T02:37:40.811Z,100.00
2023-04-15T02:40:11.978Z,100.00
2023-04-15T02:42:44.128Z,100.00
2023-04-15T02:45:12.930Z,100.00
2023-04-15T02:47:43.335Z,100.00
2023-04-15T02:50:13.488Z,100.00
2023-04-15T02:52:42.094Z,100.00
2023-04-15T02:55:09.718Z,100.00
2023-04-15T02:57:40.844Z,100.00
2023-04-15T03:00:10.213Z,100.00
2023-04-15T03:02:40.202Z,100.00
2023-04-15T03:05:07.818Z,100.00
2023-04-15T03:07:35.702Z,100.00
2023-04-15T03:10:02.705Z,100.00
2023-04-15T03:12:30.502Z,100.00
2023-04-15T03:14:57.205Z,100.00
2023-04-15T03:17:23.944Z,100.00
2023-04-15T03:19:53.635Z,100.00
2023-04-15T03:22:20.581Z,100.00
2023-04-15T03:24:55.053Z,100.00
2023-04-15T03:27:21.697Z,100.00
2023-04-15T03:29:51.747Z,100.00
2023-04-15T03:32:22.859Z,100.00
2023-04-15T03:34:55.396Z,100.00
2023-04-15T03:37:22.424Z,100.00
2023-04-15T03:39:53.309Z,100.00
2023-04-15T03:42:20.456Z,100.00
2023-04-15T03:44:51.304Z,100.00
2023-04-15T03:47:18.242Z,100.00
2023-04-15T03:49:47.836Z,100.00
2023-04-15T03:52:17.030Z,100.00
2023-04-15T03:54:56.233Z,100.00
2023-04-15T03:57:24.367Z,100.00
2023-04-15T04:00:02.569Z,100.00
2023-04-15T04:02:36.936Z,100.00
2023-04-15T04:05:12.695Z,100.00
2023-04-15T04:07:57.251Z,100.00
2023-04-15T04:10:27.164Z,100.00
2023-04-15T04:12:59.876Z,100.00
2023-04-15T04:15:28.999Z,100.00
2023-04-15T04:17:58.331Z,100.00
2023-04-15T04:20:26.158Z,100.00
2023-04-15T04:23:02.861Z,100.00
2023-04-15T04:25:29.817Z,100.00
2023-04-15T04:28:02.308Z,100.00
2023-04-15T04:30:31.805Z,100.00
2023-04-15T04:33:02.573Z,100.00
2023-04-15T04:35:30.716Z,100.00
2023-04-15T04:38:01.103Z,100.00
2023-04-15T04:40:33.863Z,100.00
2023-04-15T04:43:01.222Z,100.00
2023-04-15T04:45:30.603Z,100.00
2023-04-15T04:47:57.745Z,100.00
2023-04-15T04:50:24.471Z,100.00
2023-04-15T04:55:56.753Z,100.00
2023-04-15T04:58:37.707Z,100.00
2023-04-15T05:01:04.727Z,100.00
2023-04-15T05:03:33.952Z,100.00
2023-04-15T05:06:06.174Z,100.00
2023-04-15T05:08:35.041Z,100.00
2023-04-15T05:11:08.267Z,100.00
2023-04-15T05:13:43.557Z,100.00
2023-04-15T05:16:10.378Z,100.00
2023-04-15T05:18:42.263Z,100.00
2023-04-15T05:21:09.099Z,100.00
2023-04-15T05:23:38.038Z,100.00
2023-04-15T05:26:04.888Z,100.00
2023-04-15T05:28:31.512Z,100.00
2023-04-15T05:30:58.381Z,100.00
2023-04-15T05:33:27.692Z,100.00
2023-04-15T05:35:54.242Z,100.00
2023-04-15T05:41:09.681Z,100.00
2023-04-15T05:43:40.441Z,100.00
2023-04-15T05:46:18.141Z,100.00
2023-04-15T05:48:46.118Z,100.00
2023-04-15T05:51:27.102Z,100.00
2023-04-15T05:53:53.784Z,100.00
2023-04-15T05:56:23.135Z,100.00
2023-04-15T05:59:07.515Z,100.00
2023-04-15T06:01:34.465Z,100.00
2023-04-15T06:04:09.862Z,100.00
2023-04-15T06:06:41.332Z,100.00
2023-04-15T06:09:08.006Z,100.00
2023-04-15T06:11:37.318Z,100.00
2023-04-15T06:14:11.511Z,100.00
2023-04-15T06:16:51.938Z,100.00
2023-04-15T06:19:26.303Z,100.00
2023-04-15T06:22:30.817Z,100.00
2023-04-15T06:27:47.406Z,100.00
2023-04-15T06:30:25.360Z,100.00
2023-04-15T06:32:52.907Z,100.00
2023-04-15T06:35:20.044Z,100.00
2023-04-15T06:37:52.019Z,100.00
2023-04-15T06:40:18.688Z,100.00
2023-04-15T06:42:45.777Z,100.00
2023-04-15T06:45:15.317Z,100.00
2023-04-15T06:47:44.415Z,100.00
2023-04-15T06:50:13.545Z,100.00
2023-04-15T06:52:50.847Z,100.00
2023-04-15T06:55:32.183Z,100.00
2023-04-15T06:58:25.491Z,100.00
2023-04-15T07:00:55.849Z,100.00
2023-04-15T07:03:22.617Z,100.00
2023-04-15T07:05:53.466Z,100.00
2023-04-15T07:08:50.381Z,100.00
2023-04-15T07:11:52.512Z,100.00
2023-04-15T07:14:26.629Z,100.00
2023-04-15T07:17:12.689Z,100.00
2023-04-15T07:19:50.430Z,100.00
2023-04-15T07:22:20.393Z,100.00
2023-04-15T07:24:58.181Z,100.00
2023-04-15T07:27:25.154Z,100.00
2023-04-15T07:29:52.834Z,100.00
2023-04-15T07:32:21.461Z,100.00
2023-04-15T07:35:42.421Z,100.00
2023-04-15T07:38:07.247Z,100.00
2023-04-15T07:40:34.373Z,100.00
2023-04-15T07:43:42.045Z,100.00
2023-04-15T07:46:24.819Z,100.00
2023-04-15T07:48:52.635Z,100.00
2023-04-15T07:51:25.695Z,100.00
2023-04-15T07:53:53.013Z,100.00
2023-04-15T07:56:22.373Z,100.00
2023-04-15T07:59:19.010Z,100.00
2023-04-15T08:02:07.210Z,100.00
2023-04-15T08:04:35.882Z,100.00
2023-04-15T08:07:29.178Z,100.00
2023-04-15T08:09:58.762Z,100.00
2023-04-15T08:12:38.700Z,100.00
2023-04-15T08:15:21.091Z,100.00
2023-04-15T08:18:05.263Z,100.00
2023-04-15T08:20:36.443Z,100.00
2023-04-15T08:23:04.693Z,100.00
2023-04-15T08:25:45.463Z,100.00
2023-04-15T08:28:12.236Z,100.00
2023-04-15T08:30:41.156Z,100.00
2023-04-15T08:33:12.633Z,100.00
2023-04-15T08:35:44.802Z,100.00
2023-04-15T08:38:38.635Z,100.00
2023-04-15T08:42:10.392Z,100.00
2023-04-15T08:44:48.888Z,100.00
2023-04-15T08:50:53.576Z,100.00
2023-04-15T09:04:23.975Z,100.00
2023-04-15T10:32:18.628Z,100.00
2023-04-15T11:06:47.741Z,100.00
2023-04-15T11:26:49.644Z,100.00
2023-04-15T11:30:39.444Z,100.00
2023-04-15T11:33:56.617Z,100.00
2023-04-15T11:37:30.675Z,100.00
2023-04-15T11:44:22.028Z,100.00
2023-04-15T11:47:02.702Z,100.00
2023-04-15T11:53:23.136Z,100.00
2023-04-15T12:00:05.699Z,100.00
2023-04-15T12:50:16.706Z,100.00
2023-04-15T14:34:56.076Z,87.60
2023-04-15T14:43:04.274Z,96.17
2023-04-15T15:03:23.634Z,98.63
2023-04-15T15:23:37.490Z,88.33
2023-04-15T15:26:42.335Z,78.19
2023-04-15T15:29:27.942Z,99.32
2023-04-15T15:32:08.194Z,98.17
2023-04-15T15:35:03.975Z,86.67
2023-04-15T15:38:12.018Z,100.00
2023-04-15T15:44:44.550Z,88.32
2023-04-15T15:47:57.780Z,88.95
2023-04-15T15:50:43.855Z,86.66
2023-04-15T15:53:28.225Z,84.17
2023-04-15T15:56:21.217Z,75.98
2023-04-15T15:58:59.680Z,74.68
2023-04-15T16:05:27.299Z,78.68
2023-04-15T16:08:05.558Z,76.31
2023-04-15T16:36:41.839Z,87.84
2023-04-15T16:39:12.247Z,69.26
2023-04-15T16:41:41.701Z,69.01
2023-04-15T16:44:13.550Z,69.14
2023-04-15T16:46:57.302Z,68.12
2023-04-15T16:49:50.590Z,71.31
2023-04-15T16:52:39.269Z,68.26
2023-04-15T16:58:18.602Z,81.93
2023-04-15T17:00:50.310Z,68.59
2023-04-15T17:03:20.169Z,68.57
2023-04-15T17:05:51.925Z,82.74
2023-04-15T17:08:40.469Z,68.29
2023-04-15T17:11:07.396Z,71.45
2023-04-15T17:13:58.584Z,69.17
2023-04-15T17:16:28.124Z,69.11
2023-04-15T17:18:57.679Z,80.89
2023-04-15T17:21:25.988Z,75.04
2023-04-15T17:23:58.896Z,69.24
2023-04-15T17:26:25.603Z,69.23
2023-04-15T17:28:54.862Z,79.19
2023-04-15T17:31:32.884Z,84.64
2023-04-15T17:34:13.956Z,69.62
2023-04-15T17:36:51.606Z,90.00
2023-04-15T17:39:41.603Z,83.82
2023-04-15T17:42:15.878Z,74.74
2023-04-15T17:44:45.595Z,69.73
2023-04-15T17:47:14.867Z,69.54
2023-04-15T17:49:41.639Z,68.83
2023-04-15T17:55:23.057Z,84.66
2023-04-15T17:57:56.953Z,76.24
2023-04-15T18:00:26.735Z,68.75
2023-04-15T18:02:57.610Z,69.08
2023-04-15T18:05:24.590Z,68.98
2023-04-15T18:07:53.106Z,70.97
2023-04-15T18:10:20.850Z,69.47
2023-04-15T18:12:50.528Z,76.41
2023-04-15T18:15:23.298Z,76.88
2023-04-15T18:17:50.086Z,69.36
2023-04-15T18:20:16.948Z,70.23
2023-04-15T18:22:44.461Z,70.15
2023-04-15T18:25:11.372Z,70.67
2023-04-15T18:27:41.272Z,70.42
2023-04-15T18:30:14.278Z,71.98
2023-04-15T18:32:55.404Z,71.64
2023-04-15T18:35:22.791Z,72.19
2023-04-15T18:37:49.577Z,71.64
2023-04-15T18:40:19.220Z,71.33
2023-04-15T18:46:12.433Z,72.51
2023-04-15T18:48:39.594Z,72.56
2023-04-15T18:51:06.202Z,72.28
2023-04-15T18:53:38.133Z,72.40
2023-04-15T18:56:05.251Z,72.18
2023-04-15T18:59:18.254Z,78.14
2023-04-15T19:01:27.080Z,77.40
2023-04-15T19:04:09.300Z,83.82
2023-04-15T19:06:50.863Z,78.77
2023-04-15T19:09:17.985Z,72.88
2023-04-15T19:11:44.756Z,73.76
2023-04-15T19:14:11.788Z,73.85
2023-04-15T19:16:48.613Z,73.59
2023-04-15T19:19:16.976Z,74.16
2023-04-15T19:21:49.921Z,74.85
2023-04-15T19:24:21.843Z,73.88
2023-04-15T19:27:06.535Z,83.96
2023-04-15T19:30:19.799Z,83.47
2023-04-15T19:33:11.148Z,81.98
2023-04-15T19:36:01.817Z,75.75
2023-04-15T19:39:21.215Z,82.39
2023-04-15T19:42:21.463Z,81.91
2023-04-15T19:45:06.513Z,77.20
2023-04-15T19:47:45.728Z,77.41
2023-04-15T19:50:17.046Z,76.75
2023-04-15T19:52:43.908Z,77.28
2023-04-15T19:55:13.271Z,76.85
2023-04-15T19:57:39.920Z,76.42
2023-04-15T20:00:08.595Z,77.14
2023-04-15T20:02:38.492Z,81.24
2023-04-15T20:05:09.821Z,77.83
2023-04-15T20:07:36.792Z,77.62
2023-04-15T20:10:09.641Z,78.30
2023-04-15T20:12:51.164Z,81.30
2023-04-15T20:15:23.871Z,78.60
2023-04-15T20:17:50.985Z,77.97
2023-04-15T20:20:24.228Z,81.61
2023-04-15T20:22:53.203Z,79.07
2023-04-15T20:25:20.191Z,78.63
2023-04-15T20:27:47.372Z,79.36
2023-04-15T20:30:15.625Z,79.57
2023-04-15T20:32:55.371Z,81.69
2023-04-15T20:35:22.424Z,79.06
2023-04-15T20:37:49.515Z,79.61
2023-04-15T20:40:16.644Z,79.71
2023-04-15T20:42:58.151Z,86.38
2023-04-15T20:45:54.007Z,86.38
2023-04-15T20:48:24.102Z,82.70
2023-04-15T20:50:59.526Z,80.09
2023-04-15T20:53:27.684Z,79.89
2023-04-15T20:55:59.689Z,80.09
2023-04-15T20:58:27.603Z,80.52
2023-04-15T21:00:58.844Z,80.63
2023-04-15T21:06:08.279Z,80.67
2023-04-15T21:08:37.153Z,81.05
2023-04-15T21:11:03.855Z,80.91
2023-04-15T21:13:30.513Z,80.71
2023-04-15T21:18:40.310Z,81.48
2023-04-15T21:21:10.101Z,83.62
2023-04-15T21:23:48.899Z,82.22
2023-04-15T21:26:18.724Z,82.51
2023-04-15T21:28:55.764Z,84.76
2023-04-15T21:31:25.134Z,82.28
2023-04-15T21:34:02.562Z,81.69
2023-04-15T21:36:51.455Z,88.54
2023-04-15T21:39:21.132Z,82.23
2023-04-15T21:41:50.017Z,82.58
2023-04-15T21:44:19.733Z,82.82
2023-04-15T21:47:09.997Z,89.91
2023-04-15T21:49:49.362Z,82.36
2023-04-15T21:52:28.604Z,85.20
2023-04-15T21:54:56.255Z,83.37
2023-04-15T21:57:54.987Z,90.03
2023-04-15T22:00:34.945Z,82.79
2023-04-15T22:04:32.710Z,89.81
2023-04-15T22:07:20.432Z,83.90
2023-04-15T22:10:10.897Z,84.01
2023-04-15T22:12:37.955Z,84.32
2023-04-15T22:15:07.806Z,83.74
2023-04-15T22:17:34.390Z,83.50
2023-04-15T22:20:04.006Z,84.30
2023-04-15T22:22:43.538Z,84.84
2023-04-15T22:25:11.231Z,84.29
2023-04-15T22:27:40.350Z,87.05
2023-04-15T22:30:07.629Z,85.28
2023-04-15T22:32:34.788Z,84.84
2023-04-15T22:35:02.012Z,85.60
2023-04-15T22:37:31.675Z,84.83
2023-04-15T22:39:58.787Z,85.42
2023-04-15T22:42:25.705Z,85.43
2023-04-15T22:44:52.293Z,85.77
2023-04-15T22:47:19.709Z,85.68
2023-04-15T22:49:46.513Z,85.18
2023-04-15T22:52:27.492Z,85.40
2023-04-15T22:55:00.438Z,85.89
2023-04-15T22:57:28.327Z,85.99
2023-04-15T22:59:55.364Z,85.51
2023-04-15T23:02:22.170Z,86.40
2023-04-15T23:04:49.314Z,85.85
2023-04-15T23:07:16.325Z,85.84
2023-04-15T23:09:43.454Z,86.33
2023-04-15T23:12:10.514Z,86.27
2023-04-15T23:14:37.200Z,86.79
2023-04-15T23:17:04.273Z,85.49
2023-04-15T23:19:31.233Z,86.02
2023-04-15T23:21:58.033Z,86.39
2023-04-15T23:24:24.636Z,87.26
2023-04-15T23:26:53.321Z,86.80
2023-04-15T23:29:20.223Z,86.41
2023-04-15T23:31:48.836Z,86.13
2023-04-15T23:34:15.676Z,86.84
2023-04-15T23:36:42.275Z,86.37
2023-04-15T23:39:09.156Z,87.06
2023-04-15T23:41:36.752Z,86.37
2023-04-15T23:44:03.703Z,86.72
2023-04-15T23:46:30.543Z,86.83
2023-04-15T23:48:57.361Z,87.01
2023-04-15T23:51:29.503Z,87.60
2023-04-15T23:53:56.171Z,86.66
2023-04-15T23:56:22.755Z,87.20
2023-04-15T23:58:49.370Z,86.36
